Time;durP1;ratioP1;P1;durP2;ratioP2;P2;SDS_P1;SDS_P2;PMS_P1;PMS_P2;Temp;Humidity;BMP_temperature;BMP_pressure;BME280_temperature;BME280_humidity;BME280_pressure;Samples;Min_cycle;Max_cycle;Signal;HPM_P1;HPM_P2
2022/06/04 00:00:58;;;;;;;12.18;9.58;;;;;;;13.03;66.73;100727.34;1730586;82;25750;-75
2022/06/04 00:03:27;;;;;;;15.75;10.63;;;;;;;13.02;66.93;100724.94;1735370;81;25623;-75
2022/06/04 00:05:57;;;;;;;12.75;10.30;;;;;;;12.99;66.97;100720.12;1746957;81;25693;-75
2022/06/04 00:08:24;;;;;;;14.23;10.75;;;;;;;12.97;67.01;100716.37;1732653;81;25591;-72
2022/06/04 00:16:27;;;;;;;11.50;10.30;;;;;;;12.87;67.28;100713.94;1710652;82;25681;-74
2022/06/04 00:18:53;;;;;;;14.98;10.30;;;;;;;12.84;67.47;100713.23;1716400;82;26548;-73
2022/06/04 00:21:23;;;;;;;13.18;10.38;;;;;;;12.82;67.82;100718.15;1733768;82;25740;-74
2022/06/04 00:23:51;;;;;;;13.78;9.83;;;;;;;12.79;67.82;100710.09;1681878;85;28033;-75
2022/06/04 00:26:19;;;;;;;10.98;9.35;;;;;;;12.77;67.99;100705.54;1757291;80;25727;-74
2022/06/04 00:28:48;;;;;;;12.40;9.78;;;;;;;12.76;67.90;100704.49;1773781;79;25777;-74
2022/06/04 00:31:19;;;;;;;10.93;9.70;;;;;;;12.74;67.89;100703.45;1745096;80;25752;-74
2022/06/04 00:33:51;;;;;;;13.45;9.70;;;;;;;12.73;67.95;100704.55;1765695;80;25666;-74
2022/06/04 00:36:18;;;;;;;11.95;9.55;;;;;;;12.70;68.05;100703.81;1757088;80;27352;-73
2022/06/04 00:38:45;;;;;;;14.47;10.08;;;;;;;12.66;68.37;100700.92;1773831;80;25679;-74
2022/06/04 00:41:38;;;;;;;10.50;9.40;;;;;;;12.64;68.39;100696.38;1747349;80;25722;-74
2022/06/04 00:44:19;;;;;;;12.70;10.32;;;;;;;12.61;68.38;100698.91;1666955;84;25694;-74
2022/06/04 00:47:13;;;;;;;11.50;9.53;;;;;;;12.57;68.26;100698.74;1666642;85;25703;-74
2022/06/04 00:49:40;;;;;;;11.10;9.25;;;;;;;12.57;68.44;100698.74;1667126;86;27883;-72
2022/06/04 00:52:12;;;;;;;10.32;8.58;;;;;;;12.55;68.50;100694.19;1655519;86;25503;-73
2022/06/04 00:54:40;;;;;;;12.05;8.90;;;;;;;12.54;68.75;100691.22;1656334;86;25698;-74
2022/06/04 00:57:40;;;;;;;10.63;8.70;;;;;;;12.53;68.80;100696.39;1643555;86;25624;-74
2022/06/04 01:00:17;;;;;;;9.70;8.03;;;;;;;12.52;68.84;100694.81;1634666;86;25791;-73
2022/06/04 01:02:52;;;;;;;11.83;8.43;;;;;;;12.51;68.89;100689.13;1647139;86;27524;-72
2022/06/04 01:05:26;;;;;;;10.78;8.68;;;;;;;12.52;68.87;100686.67;1661416;86;25712;-74
2022/06/04 01:08:13;;;;;;;9.18;8.28;;;;;;;12.51;68.93;100688.59;1646799;86;25479;-74
2022/06/04 01:11:01;;;;;;;9.65;8.65;;;;;;;12.54;68.94;100683.64;1648069;85;26760;-75
2022/06/04 01:13:50;;;;;;;10.25;8.30;;;;;;;12.55;68.80;100685.23;1637869;87;25718;-73
2022/06/04 01:16:39;;;;;;;10.13;8.23;;;;;;;12.55;69.12;100678.44;1636845;87;27440;-74
2022/06/04 01:19:39;;;;;;;10.63;8.15;;;;;;;12.54;68.76;100676.30;1636896;87;26385;-75
2022/06/04 01:22:26;;;;;;;11.15;8.13;;;;;;;12.54;68.74;100673.58;1739898;81;25714;-75
2022/06/04 01:25:07;;;;;;;9.00;7.80;;;;;;;12.52;68.85;100665.75;1755839;81;25742;-74
2022/06/04 01:27:48;;;;;;;8.50;6.90;;;;;;;12.53;68.94;100663.83;1727585;83;25514;-74
2022/06/04 01:30:22;;;;;;;8.83;7.17;;;;;;;12.53;68.99;100658.41;1728012;83;27406;-73
2022/06/04 01:32:53;;;;;;;7.05;5.90;;;;;;;12.52;69.12;100655.47;1746794;81;25681;-73
2022/06/04 01:35:44;;;;;;;9.80;7.85;;;;;;;12.49;69.14;100647.37;1740318;81;25757;-74
2022/06/04 01:38:39;;;;;;;8.85;7.28;;;;;;;12.51;69.06;100648.42;1743582;81;25734;-73
2022/06/04 01:41:27;;;;;;;7.75;6.20;;;;;;;12.52;69.12;100643.26;1748965;81;25401;-75
2022/06/04 01:43:58;;;;;;;7.05;6.37;;;;;;;12.53;69.08;100647.55;1692803;83;27301;-73
2022/06/04 01:46:46;;;;;;;6.83;6.22;;;;;;;12.55;69.09;100645.34;1712200;83;25459;-76
2022/06/04 01:49:23;;;;;;;7.33;6.62;;;;;;;12.57;69.18;100641.76;1688604;83;25489;-75
2022/06/04 01:51:54;;;;;;;7.42;5.50;;;;;;;12.59;68.94;100642.80;1693578;83;25704;-73
2022/06/04 01:54:28;;;;;;;7.83;6.55;;;;;;;12.60;68.87;100643.84;1697895;83;25692;-73
2022/06/04 01:57:00;;;;;;;6.75;6.03;;;;;;;12.63;68.85;100645.12;1691399;83;27319;-74
2022/06/04 01:59:46;;;;;;;9.25;6.90;;;;;;;12.64;68.73;100642.66;1707662;83;25794;-74
2022/06/04 02:02:30;;;;;;;6.62;5.92;;;;;;;12.65;68.57;100641.00;1694904;83;25836;-74
2022/06/04 02:05:00;;;;;;;8.88;5.75;;;;;;;12.66;68.57;100642.58;1690914;83;25723;-74
2022/06/04 02:07:31;;;;;;;7.42;6.47;;;;;;;12.67;68.63;100641.47;1753480;81;25574;-73
2022/06/04 02:10:27;;;;;;;8.78;6.65;;;;;;;12.67;68.55;100643.40;1755400;80;27335;-73
2022/06/04 02:12:58;;;;;;;6.80;5.85;;;;;;;12.69;68.86;100645.23;1745802;81;25423;-73
2022/06/04 02:15:32;;;;;;;6.33;5.70;;;;;;;12.70;68.54;100635.95;1751838;81;25640;-73
2022/06/04 02:18:00;;;;;;;6.65;5.87;;;;;;;12.70;68.47;100630.00;1742144;81;25617;-73
2022/06/04 02:20:26;;;;;;;6.08;5.53;;;;;;;12.71;68.41;100624.80;1749169;81;25780;-73
2022/06/04 02:22:54;;;;;;;8.85;5.72;;;;;;;12.73;68.43;100624.48;1745657;81;27407;-74
2022/06/04 02:25:22;;;;;;;6.58;5.28;;;;;;;12.74;68.34;100618.52;1752486;81;25481;-74
2022/06/04 02:27:50;;;;;;;7.35;5.58;;;;;;;12.75;68.43;100618.73;1745596;81;25681;-74
2022/06/04 02:30:17;;;;;;;7.72;5.80;;;;;;;12.73;68.36;100604.69;1749022;81;25690;-74
2022/06/04 02:33:04;;;;;;;8.20;6.35;;;;;;;12.74;68.28;100600.30;1750505;81;25474;-74
2022/06/04 02:35:41;;;;;;;6.65;5.53;;;;;;;12.74;68.39;100600.88;1728755;83;27340;-72
2022/06/04 02:38:25;;;;;;;6.03;5.40;;;;;;;12.75;68.37;100601.09;1728143;83;25713;-72
2022/06/04 02:41:20;;;;;;;7.90;5.40;;;;;;;12.74;68.40;100602.23;1726824;83;25506;-73
2022/06/04 02:44:01;;;;;;;6.12;5.53;;;;;;;12.74;68.27;100605.73;1726915;83;25823;-73
2022/06/04 02:46:40;;;;;;;8.75;5.50;;;;;;;12.74;68.56;100600.88;1727524;83;25798;-73
2022/06/04 02:49:18;;;;;;;6.62;5.62;;;;;;;12.74;68.56;100596.80;1727403;83;27291;-74
2022/06/04 02:51:49;;;;;;;7.03;6.40;;;;;;;12.75;68.62;100592.95;1727259;83;25533;-74
2022/06/04 02:54:33;;;;;;;6.33;5.58;;;;;;;12.75;68.62;100585.60;1727603;83;25689;-74
2022/06/04 02:57:01;;;;;;;7.12;6.35;;;;;;;12.77;68.80;100596.97;1727021;83;25746;-72
2022/06/04 02:59:29;;;;;;;6.40;5.67;;;;;;;12.79;68.84;100592.58;1728652;83;25778;-73
2022/06/04 03:01:59;;;;;;;7.20;6.50;;;;;;;12.81;68.88;100589.78;1726876;83;27978;-74
2022/06/04 03:04:26;;;;;;;6.58;5.97;;;;;;;12.84;69.06;100593.22;1728353;83;25539;-74
2022/06/04 03:06:52;;;;;;;9.80;6.05;;;;;;;12.88;68.99;100591.45;1727128;83;25744;-74
2022/06/04 03:09:21;;;;;;;7.50;5.72;;;;;;;12.92;68.95;100586.19;1728598;83;25655;-73
2022/06/04 03:11:50;;;;;;;6.95;6.30;;;;;;;12.94;68.95;100577.20;1745577;81;25645;-74
2022/06/04 03:14:19;;;;;;;7.17;6.50;;;;;;;12.98;69.01;100579.50;1753288;81;27398;-74
2022/06/04 03:16:48;;;;;;;6.85;6.22;;;;;;;13.01;68.97;100578.88;1769792;79;25775;-74
2022/06/04 03:19:15;;;;;;;6.95;6.28;;;;;;;13.05;69.17;100577.67;1768764;81;25690;-74
2022/06/04 03:21:43;;;;;;;6.87;6.28;;;;;;;13.11;69.22;100587.81;1745995;81;25740;-74
2022/06/04 03:24:12;;;;;;;8.03;6.35;;;;;;;13.15;69.08;100590.94;1757127;81;25407;-74
2022/06/04 03:26:38;;;;;;;7.15;6.45;;;;;;;13.20;69.26;100596.21;1759365;81;27271;-74
2022/06/04 03:29:05;;;;;;;6.80;6.17;;;;;;;13.25;69.31;100593.34;1745342;81;25739;-74
2022/06/04 03:31:31;;;;;;;8.40;6.72;;;;;;;13.31;69.24;100592.61;1764457;81;25701;-74
2022/06/04 03:33:58;;;;;;;8.78;6.50;;;;;;;13.38;69.16;100592.98;1749483;81;25694;-74
2022/06/04 03:36:25;;;;;;;7.37;6.50;;;;;;;13.45;69.17;100588.42;1753603;81;25798;-74
2022/06/04 03:38:57;;;;;;;6.53;5.83;;;;;;;13.53;69.17;100579.44;1760281;81;28085;-73
2022/06/04 03:41:24;;;;;;;6.03;5.50;;;;;;;13.60;69.13;100574.34;1740668;81;25581;-73
2022/06/04 03:43:54;;;;;;;7.25;6.00;;;;;;;13.69;68.80;100569.42;1747587;81;25714;-73
2022/06/04 03:46:24;;;;;;;6.70;6.10;;;;;;;13.78;68.86;100568.29;1769540;81;26188;-73
2022/06/04 03:48:59;;;;;;;6.58;5.97;;;;;;;13.85;68.59;100562.36;1769436;81;25717;-74
2022/06/04 03:51:28;;;;;;;6.17;5.65;;;;;;;13.93;68.52;100558.03;1740262;81;27319;-74
2022/06/04 03:53:55;;;;;;;6.40;5.80;;;;;;;13.99;68.38;100561.58;1748670;81;25761;-74
2022/06/04 03:56:22;;;;;;;6.10;5.58;;;;;;;14.15;68.38;100569.23;1753811;81;25651;-74
2022/06/04 03:58:49;;;;;;;6.05;5.45;;;;;;;14.12;68.16;100556.28;1738543;82;25669;-74
2022/06/04 04:01:21;;;;;;;46.02;27.95;;;;;;;14.19;68.14;100559.28;1765495;81;25788;-73
2022/06/04 04:03:47;;;;;;;10.13;7.90;;;;;;;14.26;68.17;100559.56;1769824;81;27905;-73
2022/06/04 04:06:18;;;;;;;6.00;5.50;;;;;;;14.33;67.99;100559.05;1755298;81;25623;-74
2022/06/04 04:08:44;;;;;;;7.65;5.90;;;;;;;14.40;67.85;100562.05;1759416;81;25861;-74
2022/06/04 04:11:14;;;;;;;8.03;5.95;;;;;;;14.46;68.00;100554.52;1770141;80;25682;-74
2022/06/04 04:13:42;;;;;;;7.40;5.22;;;;;;;14.53;68.30;100554.22;1748617;80;25650;-73
2022/06/04 04:16:11;;;;;;;6.83;6.05;;;;;;;14.63;68.46;100561.25;1760326;80;27031;-73
2022/06/04 04:18:47;;;;;;;6.33;5.72;;;;;;;14.74;68.63;100550.77;1716080;83;25411;-73
2022/06/04 04:21:18;;;;;;;6.62;5.97;;;;;;;14.86;68.58;100548.11;1708787;83;25654;-74
2022/06/04 04:23:45;;;;;;;6.08;5.58;;;;;;;14.99;68.27;100538.09;1717469;83;25703;-74
2022/06/04 04:26:13;;;;;;;5.90;5.40;;;;;;;15.14;68.33;100535.33;1713952;83;25671;-74
2022/06/04 04:28:41;;;;;;;11.28;9.48;;;;;;;15.27;68.10;100527.99;1714677;83;27305;-74
2022/06/04 04:31:11;;;;;;;7.60;6.90;;;;;;;15.41;67.97;100527.69;1718782;83;25772;-74
2022/06/04 04:33:37;;;;;;;7.97;5.15;;;;;;;15.55;67.89;100528.78;1688498;83;25493;-74
2022/06/04 04:36:05;;;;;;;6.00;4.95;;;;;;;15.69;67.35;100527.32;1716952;83;25658;-75
2022/06/04 04:38:31;;;;;;;5.78;5.28;;;;;;;15.82;66.90;100529.55;1716435;83;25723;-75
2022/06/04 04:40:57;;;;;;;7.65;6.12;;;;;;;15.95;66.66;100529.56;1713425;83;27350;-75
2022/06/04 04:43:23;;;;;;;10.35;8.55;;;;;;;16.06;66.25;100527.41;1718634;83;25810;-73
2022/06/04 04:45:50;;;;;;;7.83;6.42;;;;;;;16.18;66.00;100527.20;1713823;82;25743;-73
2022/06/04 04:48:16;;;;;;;8.73;7.05;;;;;;;16.30;65.92;100525.83;1715005;83;25791;-74
2022/06/04 04:50:46;;;;;;;7.10;6.40;;;;;;;16.42;65.89;100531.27;1716306;83;25596;-74
2022/06/04 04:53:13;;;;;;;5.47;4.83;;;;;;;16.55;65.76;100533.43;1712659;83;27461;-73
2022/06/04 04:55:45;;;;;;;5.50;4.95;;;;;;;16.69;65.70;100537.73;1718289;83;26257;-73
2022/06/04 04:58:11;;;;;;;7.80;6.95;;;;;;;16.81;65.19;100537.70;1714005;83;25738;-75
2022/06/04 05:00:37;;;;;;;5.60;5.05;;;;;;;16.92;65.06;100540.19;1714695;82;25548;-74
2022/06/04 05:03:03;;;;;;;6.47;4.45;;;;;;;17.05;64.78;100539.59;1718434;83;25585;-74
2022/06/04 05:05:30;;;;;;;5.00;4.60;;;;;;;17.12;64.33;100537.06;1710887;83;27062;-74
2022/06/04 05:07:57;;;;;;;5.00;4.60;;;;;;;17.17;63.73;100534.66;1716359;83;25739;-75
2022/06/04 05:10:24;;;;;;;5.25;4.67;;;;;;;17.24;63.78;100523.92;1714808;83;25660;-74
2022/06/04 05:12:53;;;;;;;5.12;4.67;;;;;;;17.36;63.67;100528.54;1695104;83;26302;-75
2022/06/04 05:15:20;;;;;;;5.12;4.72;;;;;;;17.44;63.45;100528.17;1771730;80;25644;-75
2022/06/04 05:17:47;;;;;;;5.58;5.08;;;;;;;17.50;63.06;100525.39;1764880;80;28180;-74
2022/06/04 05:20:13;;;;;;;7.90;7.03;;;;;;;17.54;62.74;100522.19;1713889;83;25674;-75
2022/06/04 05:22:41;;;;;;;5.78;5.15;;;;;;;17.61;62.67;100514.17;1713049;83;25767;-75
2022/06/04 05:25:11;;;;;;;4.95;4.55;;;;;;;17.69;62.45;100518.68;1693491;83;25600;-75
2022/06/04 05:27:37;;;;;;;5.03;4.55;;;;;;;17.78;62.43;100525.34;1712898;83;25462;-74
2022/06/04 05:30:06;;;;;;;5.50;5.00;;;;;;;17.89;62.27;100526.45;1716767;83;27420;-73
2022/06/04 05:32:34;;;;;;;6.53;4.85;;;;;;;18.00;61.78;100520.45;1716520;83;25589;-74
2022/06/04 05:35:00;;;;;;;7.55;4.95;;;;;;;18.10;61.75;100520.70;1713114;83;25710;-74
2022/06/04 05:37:27;;;;;;;8.50;6.25;;;;;;;18.22;61.56;100517.07;1718710;83;25670;-74
2022/06/04 05:39:53;;;;;;;5.47;4.97;;;;;;;18.34;61.14;100521.64;1713939;83;25499;-74
2022/06/04 05:42:19;;;;;;;5.95;4.45;;;;;;;18.47;60.64;100522.31;1715845;83;27439;-74
2022/06/04 05:44:45;;;;;;;8.73;4.58;;;;;;;18.52;60.03;100526.14;1717264;82;25666;-74
2022/06/04 05:47:11;;;;;;;5.15;4.75;;;;;;;18.61;60.27;100531.42;1710830;83;25668;-74
2022/06/04 05:49:38;;;;;;;7.30;4.62;;;;;;;18.77;60.26;100528.65;1718335;82;25627;-74
2022/06/04 05:52:05;;;;;;;4.92;4.35;;;;;;;18.91;59.85;100527.59;1714833;83;25738;-74
2022/06/04 05:54:31;;;;;;;5.50;4.55;;;;;;;19.04;59.38;100531.79;1713667;83;27305;-74
2022/06/04 05:56:57;;;;;;;5.20;4.70;;;;;;;19.20;59.37;100531.70;1717476;83;25746;-74
2022/06/04 05:59:24;;;;;;;6.20;4.33;;;;;;;19.36;59.09;100530.85;1712761;83;25674;-74
2022/06/04 06:01:52;;;;;;;4.70;4.28;;;;;;;19.52;59.00;100527.41;1716905;83;26152;-74
2022/06/04 06:04:25;;;;;;;4.90;4.45;;;;;;;19.70;58.35;100531.05;1714262;83;25659;-75
2022/06/04 06:06:53;;;;;;;5.85;4.65;;;;;;;19.86;58.37;100526.86;1750329;81;27330;-74
2022/06/04 06:09:23;;;;;;;5.42;4.53;;;;;;;20.06;58.04;100524.25;1766421;81;25677;-74
2022/06/04 06:11:51;;;;;;;4.83;4.08;;;;;;;20.28;57.62;100517.73;1690460;82;25761;-74
2022/06/04 06:14:19;;;;;;;4.63;4.00;;;;;;;20.50;56.95;100523.74;1706061;83;25677;-74
2022/06/04 06:16:49;;;;;;;4.30;3.80;;;;;;;20.69;56.18;100524.22;1723248;82;25737;-75
2022/06/04 06:19:19;;;;;;;4.65;4.25;;;;;;;20.83;55.37;100526.36;1733197;82;27296;-74
2022/06/04 06:21:46;;;;;;;5.72;5.12;;;;;;;21.00;55.35;100523.62;1734362;82;25787;-74
2022/06/04 06:24:16;;;;;;;6.03;5.10;;;;;;;21.21;54.97;100526.42;1735674;82;25572;-74
2022/06/04 06:26:50;;;;;;;5.62;4.47;;;;;;;21.45;55.28;100527.28;1735848;82;25764;-74
2022/06/04 06:29:17;;;;;;;3.98;3.67;;;;;;;21.72;54.81;100525.78;1717721;82;25723;-74
2022/06/04 06:31:45;;;;;;;6.78;4.15;;;;;;;22.01;54.57;100529.59;1731910;82;27417;-74
2022/06/04 06:34:12;;;;;;;5.50;3.87;;;;;;;22.31;54.55;100533.38;1724580;82;25644;-74
2022/06/04 06:36:38;;;;;;;4.75;3.75;;;;;;;22.57;53.26;100529.59;1723316;82;25765;-74
2022/06/04 06:39:05;;;;;;;7.28;3.85;;;;;;;22.75;52.83;100532.45;1733203;82;25302;-74
2022/06/04 06:41:32;;;;;;;5.95;4.65;;;;;;;22.97;52.58;100535.30;1718828;82;25656;-75
2022/06/04 06:44:00;;;;;;;4.75;4.33;;;;;;;23.20;51.73;100531.67;1729560;82;27409;-74
2022/06/04 06:46:35;;;;;;;5.42;3.98;;;;;;;23.39;50.53;100522.85;1724249;82;25758;-75
2022/06/04 06:49:06;;;;;;;5.08;4.67;;;;;;;23.57;50.87;100526.44;1743686;81;25704;-75
2022/06/04 06:51:38;;;;;;;6.22;4.40;;;;;;;23.79;50.39;100522.33;1767640;81;26316;-75
2022/06/04 06:54:05;;;;;;;4.83;4.25;;;;;;;24.04;49.52;100519.57;1751246;81;25653;-74
2022/06/04 06:56:34;;;;;;;4.35;3.95;;;;;;;24.30;49.46;100516.21;1751771;80;28272;-75
2022/06/04 06:59:03;;;;;;;7.85;4.80;;;;;;;24.50;48.84;100507.67;1764176;81;25725;-74
2022/06/04 07:01:32;;;;;;;5.83;4.17;;;;;;;24.75;48.63;100513.73;1739398;81;25716;-74
2022/06/04 07:04:01;;;;;;;7.45;4.67;;;;;;;25.23;47.81;100514.48;1749126;81;25800;-74
2022/06/04 07:06:36;;;;;;;;;;;;;;;25.23;47.81;100514.48;1754918;81;25631;-74
2022/06/04 07:09:07;;;;;;;15.20;8.73;;;;;;;25.51;46.76;100512.78;1762483;81;27396;-75
2022/06/04 07:11:35;;;;;;;7.12;4.58;;;;;;;25.80;46.89;100516.13;1744310;81;25650;-74
2022/06/04 07:14:02;;;;;;;8.13;4.15;;;;;;;26.09;46.50;100514.52;1769482;81;26219;-75
2022/06/04 07:16:30;;;;;;;6.53;4.15;;;;;;;26.33;45.55;100512.70;1768162;81;25710;-75
2022/06/04 07:18:57;;;;;;;5.83;4.35;;;;;;;26.50;45.26;100524.02;1752092;81;33249;-75
2022/06/04 07:21:23;;;;;;;4.58;4.17;;;;;;;26.72;44.98;100526.77;1757061;79;27317;-75
2022/06/04 07:23:49;;;;;;;10.78;4.33;;;;;;;26.96;44.36;100535.20;1765380;79;25563;-74
2022/06/04 07:26:19;;;;;;;5.45;3.95;;;;;;;27.17;44.22;100521.63;1752188;81;25804;-76
2022/06/04 07:28:46;;;;;;;6.67;3.98;;;;;;;27.36;43.28;100521.59;1747920;81;25683;-75
2022/06/04 07:31:15;;;;;;;4.80;4.22;;;;;;;27.46;43.40;100515.70;1763842;81;25667;-74
2022/06/04 07:33:44;;;;;;;4.53;4.10;;;;;;;27.61;42.84;100520.44;1711176;82;27049;-75
2022/06/04 07:36:22;;;;;;;5.10;4.70;;;;;;;27.56;42.12;100521.69;1735487;82;26198;-74
2022/06/04 07:38:48;;;;;;;4.45;4.05;;;;;;;27.49;42.27;100517.64;1733567;82;25743;-66
2022/06/04 07:41:26;;;;;;;4.40;4.03;;;;;;;27.45;42.12;100513.53;1736106;82;25698;-68
2022/06/04 07:43:53;;;;;;;5.00;4.28;;;;;;;27.49;42.17;100521.80;1680801;84;25276;-69
2022/06/04 07:46:22;;;;;;;9.20;5.55;;;;;;;27.48;41.92;100527.97;1721119;82;27355;-67
2022/06/04 07:48:49;;;;;;;7.05;4.40;;;;;;;27.49;42.03;100523.20;1722177;82;25707;-68
2022/06/04 07:51:17;;;;;;;5.05;4.55;;;;;;;27.49;41.45;100522.59;1728318;82;25473;-67
2022/06/04 07:53:44;;;;;;;4.80;4.40;;;;;;;27.42;41.51;100523.31;1720824;82;25690;-68
2022/06/04 07:56:14;;;;;;;4.58;4.08;;;;;;;27.33;41.47;100520.45;1728105;82;25683;-68
2022/06/04 07:58:42;;;;;;;4.53;4.10;;;;;;;27.28;41.61;100512.59;1725738;82;27374;-68
2022/06/04 08:01:14;;;;;;;7.87;4.87;;;;;;;27.29;42.01;100507.81;1718322;82;25735;-67
2022/06/04 08:03:42;;;;;;;5.70;5.20;;;;;;;27.39;42.13;100513.81;1769374;81;25684;-68
2022/06/04 08:06:10;;;;;;;;;;;;;;;27.49;41.77;100510.09;1759610;80;25788;-67
2022/06/04 08:08:37;;;;;;;7.15;4.60;;;;;;;27.45;41.19;100511.34;1758726;81;25688;-68
2022/06/04 08:13:49;;;;;;;7.33;4.10;;;;;;;27.57;41.90;100504.61;1665172;85;27167;-66
2022/06/04 08:16:16;;;;;;;4.47;4.08;;;;;;;27.68;41.88;100511.98;1710497;83;25678;-67
2022/06/04 08:18:42;;;;;;;4.87;4.42;;;;;;;27.78;41.72;100504.69;1690566;83;25749;-67
2022/06/04 08:21:09;;;;;;;7.15;4.97;;;;;;;27.90;41.58;100510.41;1707676;83;25688;-69
2022/06/04 08:23:35;;;;;;;7.22;4.30;;;;;;;27.94;41.20;100498.67;1717049;82;27406;-68
2022/06/04 08:26:02;;;;;;;4.47;4.08;;;;;;;27.98;40.58;100498.61;1731242;81;25584;-71
2022/06/04 08:28:28;;;;;;;8.15;5.15;;;;;;;27.87;40.59;100505.73;1698137;83;25675;-69
2022/06/04 08:31:14;;;;;;;4.95;4.40;;;;;;;27.81;40.85;100501.84;1689872;83;26313;-67
2022/06/04 08:33:41;;;;;;;5.70;3.85;;;;;;;27.71;40.95;100503.59;1735860;82;25684;-68
2022/06/04 08:36:11;;;;;;;4.10;3.70;;;;;;;27.63;40.64;100502.13;1724599;82;27341;-69
2022/06/04 08:38:37;;;;;;;9.50;4.15;;;;;;;27.43;40.31;100504.84;1701802;83;25346;-68
2022/06/04 08:41:07;;;;;;;6.80;4.50;;;;;;;27.28;40.40;100500.67;1735998;82;25495;-69
2022/06/04 08:44:09;;;;;;;7.67;5.03;;;;;;;27.14;41.08;100498.28;1742354;81;25552;-69
2022/06/04 08:46:51;;;;;;;4.75;4.35;;;;;;;27.09;41.66;100499.33;1714970;82;25505;-68
2022/06/04 08:49:34;;;;;;;4.67;4.12;;;;;;;26.99;41.48;100502.45;1739552;82;27317;-69
2022/06/04 08:52:11;;;;;;;4.35;3.90;;;;;;;26.84;41.44;100495.69;1722487;82;25748;-68
2022/06/04 08:57:33;;;;;;;7.08;4.80;;;;;;;26.59;41.38;100502.89;1737120;82;25719;-68
2022/06/04 09:00:11;;;;;;;7.08;4.95;;;;;;;26.46;41.40;100501.27;1722897;82;25666;-69
2022/06/04 09:02:58;;;;;;;6.87;4.58;;;;;;;26.36;41.93;100499.40;1663748;85;28437;-68
2022/06/04 09:05:41;;;;;;;9.03;5.25;;;;;;;26.24;42.03;100496.55;1714323;83;25623;-68
2022/06/04 09:08:14;;;;;;;9.10;4.78;;;;;;;26.12;42.28;100505.97;1661556;85;26067;-67
2022/06/04 09:10:52;;;;;;;7.90;5.12;;;;;;;25.95;42.52;100500.78;1661322;85;26164;-69
2022/06/04 09:13:26;;;;;;;7.75;5.53;;;;;;;25.83;42.72;100502.03;1642036;85;25519;-67
2022/06/04 09:15:57;;;;;;;5.20;4.80;;;;;;;25.72;43.06;100500.75;1660812;86;27998;-66
2022/06/04 09:18:32;;;;;;;5.33;4.83;;;;;;;25.62;43.26;100499.62;1656110;86;25706;-64
2022/06/04 09:21:00;;;;;;;6.67;5.30;;;;;;;25.50;43.49;100499.52;1668619;86;25857;-65
2022/06/04 09:23:39;;;;;;;;;;;;;;;25.41;43.71;100493.66;1670002;86;25691;-65
2022/06/04 09:26:24;;;;;;;5.80;5.30;;;;;;;25.31;44.22;100486.21;1668045;86;32403;-67
2022/06/04 09:29:39;;;;;;;7.35;5.22;;;;;;;25.22;44.61;100483.09;1668282;86;27456;-68
2022/06/04 09:32:47;;;;;;;9.50;5.20;;;;;;;25.11;44.70;100486.67;1664686;84;25692;-68
2022/06/04 09:35:08;;;;;;;6.60;4.90;;;;;;;25.09;45.07;100488.29;1646503;86;25735;-69
2022/06/04 09:37:44;;;;;;;9.38;5.80;;;;;;;25.09;45.57;100489.06;1668446;86;25721;-70
2022/06/04 09:40:28;;;;;;;10.68;5.67;;;;;;;25.08;45.46;100497.77;1680726;84;25668;-68
2022/06/04 09:43:15;;;;;;;11.57;5.70;;;;;;;25.05;45.56;100491.08;1634719;87;28036;-67
2022/06/04 09:45:45;;;;;;;10.60;5.85;;;;;;;25.05;45.87;100495.23;1582287;89;25982;-68
2022/06/04 09:48:23;;;;;;;10.10;6.33;;;;;;;25.04;46.17;100498.39;1599014;89;25678;-67
2022/06/04 09:50:56;;;;;;;8.90;5.92;;;;;;;25.02;46.35;100502.95;1591765;90;26452;-69
2022/06/04 09:53:27;;;;;;;6.00;5.42;;;;;;;25.01;46.00;100506.11;1591893;90;25742;-67
2022/06/04 09:56:17;;;;;;;8.23;6.05;;;;;;;24.98;46.50;100501.58;1588714;90;27474;-68
2022/06/04 09:58:47;;;;;;;8.05;5.10;;;;;;;24.96;46.61;100499.02;1578828;88;25844;-67
2022/06/04 10:01:21;;;;;;;32.85;8.65;;;;;;;24.94;46.84;100495.87;1608638;88;25614;-69
2022/06/04 10:04:11;;;;;;;7.95;7.25;;;;;;;24.87;48.33;100498.06;1598770;88;26251;-68
2022/06/04 10:06:38;;;;;;;28.87;17.32;;;;;;;24.79;48.08;100496.52;1615864;88;25386;-67
2022/06/04 10:12:08;;;;;;;7.85;6.47;;;;;;;24.50;49.18;100503.52;1575093;90;25833;-67
2022/06/04 10:14:40;;;;;;;11.50;6.83;;;;;;;24.37;49.13;100503.15;1585668;88;25910;-67
2022/06/04 10:17:23;;;;;;;13.40;6.60;;;;;;;24.28;49.47;100504.74;1572444;91;25791;-66
2022/06/04 10:19:52;;;;;;;9.13;7.15;;;;;;;24.23;49.66;100501.20;1601500;88;25583;-69
2022/06/04 10:22:19;;;;;;;7.10;6.42;;;;;;;24.20;49.84;100498.45;1638188;86;27353;-71
2022/06/04 10:24:58;;;;;;;6.78;6.17;;;;;;;24.16;50.40;100502.61;1732352;82;25700;-72
2022/06/04 10:27:45;;;;;;;5.80;5.30;;;;;;;24.12;50.52;100504.56;1742360;82;25741;-68
2022/06/04 10:30:26;;;;;;;8.05;6.95;;;;;;;24.08;50.38;100506.56;1679819;85;25595;-70
2022/06/04 10:33:14;;;;;;;8.73;7.15;;;;;;;24.00;51.62;100511.28;1742149;82;25643;-70
2022/06/04 10:36:38;;;;;;;9.70;7.20;;;;;;;23.82;51.54;100510.49;1742575;82;27341;-70
2022/06/04 10:39:19;;;;;;;8.53;7.33;;;;;;;23.53;51.12;100511.85;1717955;82;25763;-70
2022/06/04 10:41:56;;;;;;;8.40;7.60;;;;;;;23.13;51.32;100517.26;1742315;82;25734;-70
2022/06/04 10:44:31;;;;;;;9.75;7.58;;;;;;;22.89;52.19;100525.62;1694477;83;25846;-69
2022/06/04 10:47:18;;;;;;;9.18;8.18;;;;;;;22.67;52.63;100526.11;1679965;85;25666;-71
2022/06/04 10:50:19;;;;;;;8.10;7.40;;;;;;;22.51;53.17;100522.88;1689752;84;27902;-69
2022/06/04 10:53:07;;;;;;;8.55;7.67;;;;;;;22.37;53.75;100529.07;1680129;85;25699;-70
2022/06/04 10:55:55;;;;;;;8.80;7.85;;;;;;;22.11;53.41;100532.80;1667063;85;25659;-70
2022/06/04 10:58:43;;;;;;;8.48;7.53;;;;;;;22.00;54.00;100528.59;1681341;85;25623;-76
2022/06/04 11:01:31;;;;;;;11.53;8.00;;;;;;;21.89;54.17;100532.62;1680388;85;25668;-74
2022/06/04 11:04:53;;;;;;;9.43;8.08;;;;;;;21.79;54.84;100534.12;1679419;85;27390;-74
2022/06/04 11:08:01;;;;;;;12.07;9.13;;;;;;;21.70;55.17;100527.34;1679818;85;25814;-73
2022/06/04 11:10:38;;;;;;;11.83;9.13;;;;;;;21.65;55.83;100529.85;1680546;85;25653;-74
2022/06/04 11:13:31;;;;;;;10.32;9.43;;;;;;;21.52;55.88;100524.41;1683292;83;25863;-75
2022/06/04 11:16:07;;;;;;;9.65;8.60;;;;;;;21.45;56.65;100527.84;1717886;83;25734;-75
2022/06/04 11:18:47;;;;;;;8.88;8.08;;;;;;;21.42;57.24;100521.75;1639722;86;27236;-76
2022/06/04 11:21:24;;;;;;;10.50;8.78;;;;;;;21.36;57.22;100522.66;1674363;85;25725;-76
2022/06/04 11:24:46;;;;;;;11.10;9.68;;;;;;;21.31;57.54;100520.24;1676962;85;25842;-76
2022/06/04 11:27:25;;;;;;;13.28;8.75;;;;;;;;;;1640615;86;25798;-75
2022/06/04 11:29:54;;;;;;;10.72;9.63;;;;;;;21.30;58.54;100508.23;1654197;85;26222;-77
2022/06/04 11:32:34;;;;;;;13.03;9.10;;;;;;;21.32;58.60;100512.77;1651121;85;33442;-71
2022/06/04 11:35:21;;;;;;;10.28;9.25;;;;;;;21.36;58.96;100512.24;1676914;85;25901;-72
2022/06/04 11:38:22;;;;;;;10.35;9.55;;;;;;;21.45;59.21;100509.41;1653194;85;25808;-70
2022/06/04 11:41:18;;;;;;;9.90;8.83;;;;;;;21.64;59.74;100498.80;1674057;85;25631;-72
2022/06/04 11:43:55;;;;;;;10.05;8.75;;;;;;;21.79;58.77;100503.03;1655030;85;25799;-73
2022/06/04 11:46:51;;;;;;;10.05;9.15;;;;;;;21.91;58.50;100491.72;1675916;84;28239;-71
2022/06/04 11:49:23;;;;;;;10.10;9.10;;;;;;;22.00;58.57;100492.20;1674619;85;26454;-71
2022/06/04 11:52:19;;;;;;;10.13;9.23;;;;;;;22.06;58.71;100493.22;1665967;84;25811;-70
2022/06/04 11:55:03;;;;;;;11.93;9.93;;;;;;;22.10;58.67;100491.27;1662131;85;25660;-70
2022/06/04 11:57:56;;;;;;;9.78;8.75;;;;;;;22.18;58.66;100487.40;1697227;84;25709;-70
2022/06/04 12:00:33;;;;;;;8.90;8.10;;;;;;;22.28;58.42;100487.30;1592551;89;28049;-70
2022/06/04 12:03:29;;;;;;;9.23;8.43;;;;;;;22.39;58.07;100482.66;1620791;88;25528;-70
2022/06/04 12:06:25;;;;;;;10.10;8.53;;;;;;;22.62;58.26;100477.45;1548299;91;25762;-71
2022/06/04 12:08:57;;;;;;;10.05;8.98;;;;;;;23.07;58.52;100481.59;1567864;91;26442;-70
2022/06/04 12:11:44;;;;;;;12.95;8.65;;;;;;;23.73;58.75;100475.56;1620518;88;25860;-72